Northwest Alabama Regional Airport Muscle Shoals US
ICAO: KMSL
IATA: MSL
Category: Medium
Scheduled Services: Yes

Elevation: 551 ft
TransAlt. 18000 ft.

Airport Communications:
ASOS:119.425
MEMPHIS CNTR:120.8
ANNISTON RDO:122.2
CTAF/UNICOM:123.05

KMSL Zoom In..

If you have problems with the map follow the link
https://www.worldairports.se/pages/airport.php?
ICAO=KMSL

Runways:

(A) RW 11 length 6694 ft width 150 ft
---- / hdg 114

(B) RW 18 length 4000 ft width 100 ft
---- / hdg 181

(C) RW 29 length 6694 ft width 150 ft
ILS 109.70 / hdg 294

(D) RW 36 length 4000 ft width 100 ft
---- / hdg 1

Location; KMSL
Day. 14 / Time. 19.17 Zulu
* Altimeter: 29.82
* Temperature: 12° c. 53.6°f.
* Wind from: 260° Speed 08 kn.
Dewpoint: 06° c.
Visibility: 10 Statute Miles.
Clouds: Broken 2600 ft.
Clouds: Overcast 3200 ft.

KMSL 141917Z AUTO 26008KT 10SM BKN026 OVC032 12/06 A2982 RMK AO2 T01170056 $


Wind From 260°
Speed 08 kn.

 
 
jpsmedia worldairports.se 2019   terms of use